sensor_id;sensor_type;location;lat;lon;timestamp;temperature;humidity
64685;DHT22;51109;47.414;18.954;2023-07-31T00:01:47;19.20;99.90
64685;DHT22;51109;47.414;18.954;2023-07-31T00:04:13;19.20;99.90
64685;DHT22;51109;47.414;18.954;2023-07-31T00:06:39;19.20;99.90
64685;DHT22;51109;47.414;18.954;2023-07-31T00:09:06;19.20;99.90
64685;DHT22;51109;47.414;18.954;2023-07-31T00:11:32;19.20;99.90
64685;DHT22;51109;47.414;18.954;2023-07-31T00:13:58;19.20;99.90
64685;DHT22;51109;47.414;18.954;2023-07-31T00:16:24;19.20;99.90
64685;DHT22;51109;47.414;18.954;2023-07-31T00:18:50;19.20;99.90
64685;DHT22;51109;47.414;18.954;2023-07-31T00:21:16;19.10;99.90
64685;DHT22;51109;47.414;18.954;2023-07-31T00:23:42;19.10;99.90
64685;DHT22;51109;47.414;18.954;2023-07-31T00:26:08;19.10;99.90
64685;DHT22;51109;47.414;18.954;2023-07-31T00:28:34;19.10;99.90
64685;DHT22;51109;47.414;18.954;2023-07-31T00:31:00;19.10;99.90
64685;DHT22;51109;47.414;18.954;2023-07-31T00:33:25;19.10;99.90
64685;DHT22;51109;47.414;18.954;2023-07-31T00:35:51;19.10;99.90
64685;DHT22;51109;47.414;18.954;2023-07-31T00:38:17;19.10;99.90
64685;DHT22;51109;47.414;18.954;2023-07-31T00:40:43;19.10;99.90
64685;DHT22;51109;47.414;18.954;2023-07-31T00:43:09;19.00;99.90
64685;DHT22;51109;47.414;18.954;2023-07-31T00:45:35;19.00;99.90
64685;DHT22;51109;47.414;18.954;2023-07-31T00:48:02;18.90;99.90
64685;DHT22;51109;47.414;18.954;2023-07-31T00:50:28;18.90;99.90
64685;DHT22;51109;47.414;18.954;2023-07-31T00:52:54;18.80;99.90
64685;DHT22;51109;47.414;18.954;2023-07-31T00:55:20;18.90;99.90
64685;DHT22;51109;47.414;18.954;2023-07-31T00:57:48;18.90;99.90
64685;DHT22;51109;47.414;18.954;2023-07-31T01:00:14;18.80;99.90
64685;DHT22;51109;47.414;18.954;2023-07-31T01:02:40;18.80;99.90
64685;DHT22;51109;47.414;18.954;2023-07-31T01:05:07;18.80;99.90
64685;DHT22;51109;47.414;18.954;2023-07-31T01:07:45;18.70;99.90
64685;DHT22;51109;47.414;18.954;2023-07-31T01:10:49;18.80;99.90
64685;DHT22;51109;47.414;18.954;2023-07-31T01:13:05;18.80;99.90
64685;DHT22;51109;47.414;18.954;2023-07-31T01:15:31;18.80;99.90
64685;DHT22;51109;47.414;18.954;2023-07-31T01:17:57;18.80;99.90
64685;DHT22;51109;47.414;18.954;2023-07-31T01:20:24;18.80;99.90
64685;DHT22;51109;47.414;18.954;2023-07-31T01:25:56;18.80;99.90
64685;DHT22;51109;47.414;18.954;2023-07-31T01:28:45;18.80;99.90
64685;DHT22;51109;47.414;18.954;2023-07-31T01:31:18;18.70;99.90
64685;DHT22;51109;47.414;18.954;2023-07-31T01:33:46;18.70;99.90
64685;DHT22;51109;47.414;18.954;2023-07-31T01:36:12;18.60;99.90
64685;DHT22;51109;47.414;18.954;2023-07-31T01:38:39;18.50;99.90
64685;DHT22;51109;47.414;18.954;2023-07-31T01:41:05;18.60;99.90
64685;DHT22;51109;47.414;18.954;2023-07-31T01:43:31;18.50;99.90
64685;DHT22;51109;47.414;18.954;2023-07-31T01:45:57;18.50;99.90
64685;DHT22;51109;47.414;18.954;2023-07-31T01:48:23;18.50;99.90
64685;DHT22;51109;47.414;18.954;2023-07-31T01:50:48;18.50;99.90
64685;DHT22;51109;47.414;18.954;2023-07-31T01:53:15;18.40;99.90
64685;DHT22;51109;47.414;18.954;2023-07-31T01:55:41;18.40;99.90
64685;DHT22;51109;47.414;18.954;2023-07-31T01:58:06;18.50;99.90
64685;DHT22;51109;47.414;18.954;2023-07-31T02:00:32;18.40;99.90
64685;DHT22;51109;47.414;18.954;2023-07-31T02:02:59;18.40;99.90
64685;DHT22;51109;47.414;18.954;2023-07-31T02:05:25;18.40;99.90
64685;DHT22;51109;47.414;18.954;2023-07-31T02:07:51;18.40;99.90
64685;DHT22;51109;47.414;18.954;2023-07-31T02:10:17;18.40;99.90
64685;DHT22;51109;47.414;18.954;2023-07-31T02:12:43;18.40;99.90
64685;DHT22;51109;47.414;18.954;2023-07-31T02:15:09;18.40;99.90
64685;DHT22;51109;47.414;18.954;2023-07-31T02:17:35;18.40;99.90
64685;DHT22;51109;47.414;18.954;2023-07-31T02:20:01;18.40;99.90
64685;DHT22;51109;47.414;18.954;2023-07-31T02:22:27;18.40;99.90
64685;DHT22;51109;47.414;18.954;2023-07-31T02:24:53;18.40;99.90
64685;DHT22;51109;47.414;18.954;2023-07-31T02:27:19;18.40;99.90
64685;DHT22;51109;47.414;18.954;2023-07-31T02:29:45;18.40;99.90
64685;DHT22;51109;47.414;18.954;2023-07-31T02:32:11;18.40;99.90
64685;DHT22;51109;47.414;18.954;2023-07-31T02:34:37;18.40;99.90
64685;DHT22;51109;47.414;18.954;2023-07-31T02:37:03;18.40;99.90
64685;DHT22;51109;47.414;18.954;2023-07-31T02:39:29;18.40;99.90
64685;DHT22;51109;47.414;18.954;2023-07-31T02:41:55;18.40;99.90
64685;DHT22;51109;47.414;18.954;2023-07-31T02:44:21;18.40;99.90
64685;DHT22;51109;47.414;18.954;2023-07-31T02:46:47;18.40;99.90
64685;DHT22;51109;47.414;18.954;2023-07-31T02:49:13;18.40;99.90
64685;DHT22;51109;47.414;18.954;2023-07-31T02:51:38;18.40;99.90
64685;DHT22;51109;47.414;18.954;2023-07-31T02:54:04;18.30;99.90
64685;DHT22;51109;47.414;18.954;2023-07-31T02:56:30;18.30;99.90
64685;DHT22;51109;47.414;18.954;2023-07-31T02:58:56;18.30;99.90
64685;DHT22;51109;47.414;18.954;2023-07-31T03:04:17;18.20;99.90
64685;DHT22;51109;47.414;18.954;2023-07-31T03:06:43;18.20;99.90
64685;DHT22;51109;47.414;18.954;2023-07-31T03:09:09;18.20;99.90
64685;DHT22;51109;47.414;18.954;2023-07-31T03:11:34;18.20;99.90
64685;DHT22;51109;47.414;18.954;2023-07-31T03:14:00;18.20;99.90
64685;DHT22;51109;47.414;18.954;2023-07-31T03:16:26;18.10;99.90
64685;DHT22;51109;47.414;18.954;2023-07-31T03:18:52;18.10;99.90
64685;DHT22;51109;47.414;18.954;2023-07-31T03:21:18;18.10;99.90
64685;DHT22;51109;47.414;18.954;2023-07-31T03:23:44;18.00;99.90
64685;DHT22;51109;47.414;18.954;2023-07-31T03:26:10;18.10;99.90
64685;DHT22;51109;47.414;18.954;2023-07-31T03:28:36;18.10;99.90
64685;DHT22;51109;47.414;18.954;2023-07-31T03:31:02;18.10;99.90
64685;DHT22;51109;47.414;18.954;2023-07-31T03:33:28;18.10;99.90
64685;DHT22;51109;47.414;18.954;2023-07-31T03:35:54;18.10;99.90
64685;DHT22;51109;47.414;18.954;2023-07-31T03:38:20;18.10;99.90
64685;DHT22;51109;47.414;18.954;2023-07-31T03:40:46;18.10;99.90
64685;DHT22;51109;47.414;18.954;2023-07-31T03:43:12;18.10;99.90
64685;DHT22;51109;47.414;18.954;2023-07-31T03:45:38;18.10;99.90
64685;DHT22;51109;47.414;18.954;2023-07-31T03:48:04;18.10;99.90
64685;DHT22;51109;47.414;18.954;2023-07-31T03:50:31;18.10;99.90
64685;DHT22;51109;47.414;18.954;2023-07-31T03:52:57;18.10;99.90
64685;DHT22;51109;47.414;18.954;2023-07-31T03:55:22;18.10;99.90
64685;DHT22;51109;47.414;18.954;2023-07-31T03:57:48;18.10;99.90
64685;DHT22;51109;47.414;18.954;2023-07-31T04:00:14;18.20;99.90
64685;DHT22;51109;47.414;18.954;2023-07-31T04:02:40;18.20;99.90
64685;DHT22;51109;47.414;18.954;2023-07-31T04:05:07;18.20;99.90
64685;DHT22;51109;47.414;18.954;2023-07-31T04:07:33;18.20;99.90
64685;DHT22;51109;47.414;18.954;2023-07-31T04:09:59;18.20;99.90
64685;DHT22;51109;47.414;18.954;2023-07-31T04:12:25;18.20;99.90
64685;DHT22;51109;47.414;18.954;2023-07-31T04:14:51;18.20;99.90
64685;DHT22;51109;47.414;18.954;2023-07-31T04:17:20;18.20;99.90
64685;DHT22;51109;47.414;18.954;2023-07-31T04:19:46;18.20;99.90
64685;DHT22;51109;47.414;18.954;2023-07-31T04:22:12;18.20;99.90
64685;DHT22;51109;47.414;18.954;2023-07-31T04:24:38;18.20;99.90
64685;DHT22;51109;47.414;18.954;2023-07-31T04:27:03;18.20;99.90
64685;DHT22;51109;47.414;18.954;2023-07-31T04:29:29;18.10;99.90
64685;DHT22;51109;47.414;18.954;2023-07-31T04:31:55;18.10;99.90
64685;DHT22;51109;47.414;18.954;2023-07-31T04:34:21;18.10;99.90
64685;DHT22;51109;47.414;18.954;2023-07-31T04:36:47;18.10;99.90
64685;DHT22;51109;47.414;18.954;2023-07-31T04:39:13;18.10;99.90
64685;DHT22;51109;47.414;18.954;2023-07-31T04:41:39;18.20;99.90
64685;DHT22;51109;47.414;18.954;2023-07-31T04:44:05;18.20;99.90
64685;DHT22;51109;47.414;18.954;2023-07-31T04:46:31;18.20;99.90
64685;DHT22;51109;47.414;18.954;2023-07-31T04:48:57;18.20;99.90
64685;DHT22;51109;47.414;18.954;2023-07-31T04:51:23;18.30;99.90
64685;DHT22;51109;47.414;18.954;2023-07-31T04:53:49;18.30;99.90
64685;DHT22;51109;47.414;18.954;2023-07-31T04:56:15;18.30;99.90
64685;DHT22;51109;47.414;18.954;2023-07-31T04:58:41;18.30;99.90
64685;DHT22;51109;47.414;18.954;2023-07-31T05:01:07;18.30;99.90
64685;DHT22;51109;47.414;18.954;2023-07-31T05:03:33;18.40;99.90
64685;DHT22;51109;47.414;18.954;2023-07-31T05:05:59;18.50;99.90
64685;DHT22;51109;47.414;18.954;2023-07-31T05:08:25;18.60;99.90
64685;DHT22;51109;47.414;18.954;2023-07-31T05:10:51;18.60;99.90
64685;DHT22;51109;47.414;18.954;2023-07-31T05:13:17;18.80;99.90
64685;DHT22;51109;47.414;18.954;2023-07-31T05:15:43;18.90;99.90
64685;DHT22;51109;47.414;18.954;2023-07-31T05:18:09;19.10;99.90
64685;DHT22;51109;47.414;18.954;2023-07-31T05:20:35;19.20;99.90
64685;DHT22;51109;47.414;18.954;2023-07-31T05:23:01;19.30;99.90
64685;DHT22;51109;47.414;18.954;2023-07-31T05:25:27;19.20;99.90
64685;DHT22;51109;47.414;18.954;2023-07-31T05:27:53;19.20;99.90
64685;DHT22;51109;47.414;18.954;2023-07-31T05:30:18;19.20;99.90
64685;DHT22;51109;47.414;18.954;2023-07-31T05:32:45;19.10;99.90
64685;DHT22;51109;47.414;18.954;2023-07-31T05:35:11;19.10;99.90
64685;DHT22;51109;47.414;18.954;2023-07-31T05:37:37;19.30;99.90
64685;DHT22;51109;47.414;18.954;2023-07-31T05:40:03;19.50;99.90
64685;DHT22;51109;47.414;18.954;2023-07-31T05:42:29;19.80;99.90
64685;DHT22;51109;47.414;18.954;2023-07-31T05:44:55;19.80;99.90
64685;DHT22;51109;47.414;18.954;2023-07-31T05:47:21;19.80;99.90
64685;DHT22;51109;47.414;18.954;2023-07-31T05:49:48;19.60;99.90
64685;DHT22;51109;47.414;18.954;2023-07-31T05:52:15;19.50;99.90
64685;DHT22;51109;47.414;18.954;2023-07-31T05:54:42;19.40;99.90
64685;DHT22;51109;47.414;18.954;2023-07-31T05:57:07;19.40;99.90
64685;DHT22;51109;47.414;18.954;2023-07-31T05:59:33;19.70;99.90
64685;DHT22;51109;47.414;18.954;2023-07-31T06:01:59;19.90;99.90
64685;DHT22;51109;47.414;18.954;2023-07-31T06:04:25;20.10;99.90
64685;DHT22;51109;47.414;18.954;2023-07-31T06:06:51;20.20;99.90
64685;DHT22;51109;47.414;18.954;2023-07-31T06:09:17;20.30;99.90
64685;DHT22;51109;47.414;18.954;2023-07-31T06:11:43;20.50;99.90
64685;DHT22;51109;47.414;18.954;2023-07-31T06:14:09;20.60;99.90
64685;DHT22;51109;47.414;18.954;2023-07-31T06:16:35;20.80;99.90
64685;DHT22;51109;47.414;18.954;2023-07-31T06:19:01;21.00;99.90
64685;DHT22;51109;47.414;18.954;2023-07-31T06:21:27;21.10;99.90
64685;DHT22;51109;47.414;18.954;2023-07-31T06:23:53;21.20;99.90
64685;DHT22;51109;47.414;18.954;2023-07-31T06:26:19;21.30;99.90
64685;DHT22;51109;47.414;18.954;2023-07-31T06:28:45;21.40;99.90
64685;DHT22;51109;47.414;18.954;2023-07-31T06:31:12;21.50;99.90
64685;DHT22;51109;47.414;18.954;2023-07-31T06:33:38;21.50;99.90
64685;DHT22;51109;47.414;18.954;2023-07-31T06:36:04;21.30;99.90
64685;DHT22;51109;47.414;18.954;2023-07-31T06:38:30;21.00;99.90
64685;DHT22;51109;47.414;18.954;2023-07-31T06:40:56;21.10;99.90
64685;DHT22;51109;47.414;18.954;2023-07-31T06:43:22;21.00;99.90
64685;DHT22;51109;47.414;18.954;2023-07-31T06:45:48;20.80;99.90
64685;DHT22;51109;47.414;18.954;2023-07-31T06:48:16;20.70;99.90
64685;DHT22;51109;47.414;18.954;2023-07-31T06:50:42;20.60;99.90
64685;DHT22;51109;47.414;18.954;2023-07-31T06:53:08;20.60;99.90
64685;DHT22;51109;47.414;18.954;2023-07-31T06:55:34;20.50;99.90
64685;DHT22;51109;47.414;18.954;2023-07-31T06:58:00;20.40;99.90
64685;DHT22;51109;47.414;18.954;2023-07-31T07:00:27;20.50;99.90
64685;DHT22;51109;47.414;18.954;2023-07-31T07:02:53;20.60;99.90
64685;DHT22;51109;47.414;18.954;2023-07-31T07:05:19;20.80;99.90
64685;DHT22;51109;47.414;18.954;2023-07-31T07:07:45;20.90;99.90
64685;DHT22;51109;47.414;18.954;2023-07-31T07:10:11;21.10;99.90
64685;DHT22;51109;47.414;18.954;2023-07-31T07:12:37;21.30;99.90
64685;DHT22;51109;47.414;18.954;2023-07-31T07:15:03;21.40;99.90
64685;DHT22;51109;47.414;18.954;2023-07-31T07:17:30;21.60;99.90
64685;DHT22;51109;47.414;18.954;2023-07-31T07:20:00;21.80;99.90
64685;DHT22;51109;47.414;18.954;2023-07-31T07:22:26;21.90;99.90
64685;DHT22;51109;47.414;18.954;2023-07-31T07:24:53;21.80;99.90
64685;DHT22;51109;47.414;18.954;2023-07-31T07:27:19;21.60;99.90
64685;DHT22;51109;47.414;18.954;2023-07-31T07:29:46;21.30;99.90
64685;DHT22;51109;47.414;18.954;2023-07-31T07:32:12;21.10;99.90
64685;DHT22;51109;47.414;18.954;2023-07-31T07:34:38;21.00;99.90
64685;DHT22;51109;47.414;18.954;2023-07-31T07:37:05;21.10;99.90
64685;DHT22;51109;47.414;18.954;2023-07-31T07:39:31;21.40;99.90
64685;DHT22;51109;47.414;18.954;2023-07-31T07:41:57;21.30;99.90
64685;DHT22;51109;47.414;18.954;2023-07-31T07:44:22;21.30;99.90
64685;DHT22;51109;47.414;18.954;2023-07-31T07:46:48;21.20;99.90
64685;DHT22;51109;47.414;18.954;2023-07-31T07:49:14;21.00;99.90
64685;DHT22;51109;47.414;18.954;2023-07-31T07:51:40;20.90;99.90
64685;DHT22;51109;47.414;18.954;2023-07-31T07:54:06;20.90;99.90
64685;DHT22;51109;47.414;18.954;2023-07-31T07:56:33;20.90;99.90
64685;DHT22;51109;47.414;18.954;2023-07-31T07:58:59;21.20;99.90
64685;DHT22;51109;47.414;18.954;2023-07-31T08:01:25;21.40;99.90
64685;DHT22;51109;47.414;18.954;2023-07-31T08:03:51;21.40;99.90
64685;DHT22;51109;47.414;18.954;2023-07-31T08:06:17;21.60;99.90
64685;DHT22;51109;47.414;18.954;2023-07-31T08:08:43;21.90;99.90
64685;DHT22;51109;47.414;18.954;2023-07-31T08:11:09;22.10;99.90
64685;DHT22;51109;47.414;18.954;2023-07-31T08:13:35;22.40;99.90
64685;DHT22;51109;47.414;18.954;2023-07-31T08:16:03;22.50;99.90
64685;DHT22;51109;47.414;18.954;2023-07-31T08:18:31;22.70;99.90
64685;DHT22;51109;47.414;18.954;2023-07-31T08:20:57;22.70;99.90
64685;DHT22;51109;47.414;18.954;2023-07-31T08:23:23;22.50;99.90
64685;DHT22;51109;47.414;18.954;2023-07-31T08:25:49;22.60;99.90
64685;DHT22;51109;47.414;18.954;2023-07-31T08:28:16;22.50;99.90
64685;DHT22;51109;47.414;18.954;2023-07-31T08:30:42;22.50;99.90
64685;DHT22;51109;47.414;18.954;2023-07-31T08:33:08;22.50;99.90
64685;DHT22;51109;47.414;18.954;2023-07-31T08:35:34;22.70;99.90
64685;DHT22;51109;47.414;18.954;2023-07-31T08:38:00;22.90;99.90
64685;DHT22;51109;47.414;18.954;2023-07-31T08:40:26;22.70;99.90
64685;DHT22;51109;47.414;18.954;2023-07-31T08:42:55;23.00;99.90
64685;DHT22;51109;47.414;18.954;2023-07-31T08:45:28;23.10;99.90
64685;DHT22;51109;47.414;18.954;2023-07-31T08:47:55;23.40;99.90
64685;DHT22;51109;47.414;18.954;2023-07-31T08:50:23;23.30;99.90
64685;DHT22;51109;47.414;18.954;2023-07-31T08:52:51;23.30;99.90
64685;DHT22;51109;47.414;18.954;2023-07-31T08:55:17;23.20;99.90
64685;DHT22;51109;47.414;18.954;2023-07-31T08:57:51;23.20;99.90
64685;DHT22;51109;47.414;18.954;2023-07-31T09:00:18;23.30;99.90
64685;DHT22;51109;47.414;18.954;2023-07-31T09:03:07;23.10;99.90
64685;DHT22;51109;47.414;18.954;2023-07-31T09:05:36;23.10;99.90
64685;DHT22;51109;47.414;18.954;2023-07-31T09:08:04;23.10;99.90
64685;DHT22;51109;47.414;18.954;2023-07-31T09:10:31;23.20;99.90
64685;DHT22;51109;47.414;18.954;2023-07-31T09:12:57;23.30;99.90
64685;DHT22;51109;47.414;18.954;2023-07-31T09:15:24;23.30;99.90
64685;DHT22;51109;47.414;18.954;2023-07-31T09:17:59;23.60;99.90
64685;DHT22;51109;47.414;18.954;2023-07-31T09:20:26;23.90;99.90
64685;DHT22;51109;47.414;18.954;2023-07-31T09:22:52;23.90;99.90
64685;DHT22;51109;47.414;18.954;2023-07-31T09:25:21;23.90;99.90
64685;DHT22;51109;47.414;18.954;2023-07-31T09:27:52;24.00;99.90
64685;DHT22;51109;47.414;18.954;2023-07-31T09:30:18;23.90;99.90
64685;DHT22;51109;47.414;18.954;2023-07-31T09:32:46;23.70;99.90
64685;DHT22;51109;47.414;18.954;2023-07-31T09:35:29;23.60;99.90
64685;DHT22;51109;47.414;18.954;2023-07-31T09:38:05;23.70;99.90
64685;DHT22;51109;47.414;18.954;2023-07-31T09:40:33;23.70;99.90
64685;DHT22;51109;47.414;18.954;2023-07-31T09:43:01;23.60;99.90
64685;DHT22;51109;47.414;18.954;2023-07-31T09:45:28;23.70;99.90
64685;DHT22;51109;47.414;18.954;2023-07-31T09:47:55;23.80;99.90
64685;DHT22;51109;47.414;18.954;2023-07-31T09:50:23;23.50;99.90
64685;DHT22;51109;47.414;18.954;2023-07-31T09:52:50;23.50;99.90
64685;DHT22;51109;47.414;18.954;2023-07-31T09:55:16;23.60;99.90
64685;DHT22;51109;47.414;18.954;2023-07-31T09:57:45;23.70;99.90
64685;DHT22;51109;47.414;18.954;2023-07-31T10:00:12;23.80;99.90
64685;DHT22;51109;47.414;18.954;2023-07-31T10:02:39;23.80;99.90
64685;DHT22;51109;47.414;18.954;2023-07-31T10:05:06;23.60;99.90
64685;DHT22;51109;47.414;18.954;2023-07-31T10:07:39;23.70;99.90
64685;DHT22;51109;47.414;18.954;2023-07-31T10:10:08;23.90;99.90
64685;DHT22;51109;47.414;18.954;2023-07-31T10:12:37;24.10;99.90
64685;DHT22;51109;47.414;18.954;2023-07-31T10:15:04;23.90;99.90
64685;DHT22;51109;47.414;18.954;2023-07-31T10:17:31;23.90;99.90
64685;DHT22;51109;47.414;18.954;2023-07-31T10:20:00;24.10;99.90
64685;DHT22;51109;47.414;18.954;2023-07-31T10:22:29;24.30;99.90
64685;DHT22;51109;47.414;18.954;2023-07-31T10:24:58;24.40;99.90
64685;DHT22;51109;47.414;18.954;2023-07-31T10:27:24;24.30;99.90
64685;DHT22;51109;47.414;18.954;2023-07-31T10:29:52;24.50;99.90
64685;DHT22;51109;47.414;18.954;2023-07-31T10:32:20;24.50;99.90
64685;DHT22;51109;47.414;18.954;2023-07-31T10:34:47;24.50;99.90
64685;DHT22;51109;47.414;18.954;2023-07-31T10:37:28;24.50;99.90
64685;DHT22;51109;47.414;18.954;2023-07-31T10:39:59;24.60;99.90
64685;DHT22;51109;47.414;18.954;2023-07-31T10:42:30;24.40;99.90
64685;DHT22;51109;47.414;18.954;2023-07-31T10:44:58;24.40;99.90
64685;DHT22;51109;47.414;18.954;2023-07-31T10:47:25;24.40;99.90
64685;DHT22;51109;47.414;18.954;2023-07-31T10:49:51;24.60;99.90
64685;DHT22;51109;47.414;18.954;2023-07-31T10:52:21;24.60;99.90
64685;DHT22;51109;47.414;18.954;2023-07-31T10:55:14;24.60;99.90
64685;DHT22;51109;47.414;18.954;2023-07-31T10:57:44;24.50;99.90
64685;DHT22;51109;47.414;18.954;2023-07-31T11:00:29;24.90;99.90
64685;DHT22;51109;47.414;18.954;2023-07-31T11:03:04;25.00;99.90
64685;DHT22;51109;47.414;18.954;2023-07-31T11:08:52;24.90;99.90
64685;DHT22;51109;47.414;18.954;2023-07-31T11:11:15;25.00;99.90
64685;DHT22;51109;47.414;18.954;2023-07-31T11:16:15;25.10;99.90
64685;DHT22;51109;47.414;18.954;2023-07-31T11:18:43;25.00;99.90
64685;DHT22;51109;47.414;18.954;2023-07-31T11:21:17;24.90;99.90
64685;DHT22;51109;47.414;18.954;2023-07-31T11:23:48;24.90;99.90
64685;DHT22;51109;47.414;18.954;2023-07-31T11:26:15;25.00;99.90
64685;DHT22;51109;47.414;18.954;2023-07-31T11:28:42;25.00;99.90
64685;DHT22;51109;47.414;18.954;2023-07-31T11:31:10;25.20;99.90
64685;DHT22;51109;47.414;18.954;2023-07-31T11:33:36;25.40;99.90
64685;DHT22;51109;47.414;18.954;2023-07-31T11:36:03;25.50;99.90
64685;DHT22;51109;47.414;18.954;2023-07-31T11:38:31;25.70;99.90
64685;DHT22;51109;47.414;18.954;2023-07-31T11:41:00;25.70;99.90
64685;DHT22;51109;47.414;18.954;2023-07-31T11:43:26;25.80;99.90
64685;DHT22;51109;47.414;18.954;2023-07-31T11:45:55;25.80;99.90
64685;DHT22;51109;47.414;18.954;2023-07-31T11:48:33;25.70;99.90
64685;DHT22;51109;47.414;18.954;2023-07-31T11:51:01;25.60;99.90
64685;DHT22;51109;47.414;18.954;2023-07-31T11:53:35;25.40;99.90
64685;DHT22;51109;47.414;18.954;2023-07-31T11:56:03;25.60;99.90
64685;DHT22;51109;47.414;18.954;2023-07-31T11:58:34;25.70;99.90
64685;DHT22;51109;47.414;18.954;2023-07-31T12:01:01;25.90;99.90
64685;DHT22;51109;47.414;18.954;2023-07-31T12:03:27;25.90;99.90
64685;DHT22;51109;47.414;18.954;2023-07-31T12:05:54;25.70;99.90
64685;DHT22;51109;47.414;18.954;2023-07-31T12:08:24;25.80;99.90
64685;DHT22;51109;47.414;18.954;2023-07-31T12:10:54;25.80;99.90
64685;DHT22;51109;47.414;18.954;2023-07-31T12:13:25;25.90;99.90
64685;DHT22;51109;47.414;18.954;2023-07-31T12:15:56;25.80;99.90
64685;DHT22;51109;47.414;18.954;2023-07-31T12:18:24;25.90;99.90
64685;DHT22;51109;47.414;18.954;2023-07-31T12:20:58;26.20;99.90
64685;DHT22;51109;47.414;18.954;2023-07-31T12:23:29;26.20;99.90
64685;DHT22;51109;47.414;18.954;2023-07-31T12:31:21;26.20;99.90
64685;DHT22;51109;47.414;18.954;2023-07-31T12:33:49;26.30;99.90
64685;DHT22;51109;47.414;18.954;2023-07-31T12:36:25;26.40;99.90
64685;DHT22;51109;47.414;18.954;2023-07-31T12:38:52;26.40;99.90
64685;DHT22;51109;47.414;18.954;2023-07-31T12:41:18;26.30;99.90
64685;DHT22;51109;47.414;18.954;2023-07-31T12:43:45;26.30;99.90
64685;DHT22;51109;47.414;18.954;2023-07-31T12:46:11;26.20;99.90
64685;DHT22;51109;47.414;18.954;2023-07-31T12:48:39;26.20;99.90
64685;DHT22;51109;47.414;18.954;2023-07-31T12:51:05;26.10;99.90
64685;DHT22;51109;47.414;18.954;2023-07-31T12:53:32;26.00;99.90
64685;DHT22;51109;47.414;18.954;2023-07-31T12:55:58;26.20;99.90
64685;DHT22;51109;47.414;18.954;2023-07-31T12:58:25;26.30;99.90
64685;DHT22;51109;47.414;18.954;2023-07-31T13:00:51;26.60;99.90
64685;DHT22;51109;47.414;18.954;2023-07-31T13:03:17;26.70;99.90
64685;DHT22;51109;47.414;18.954;2023-07-31T13:05:43;26.70;99.90
64685;DHT22;51109;47.414;18.954;2023-07-31T13:08:09;26.90;99.90
64685;DHT22;51109;47.414;18.954;2023-07-31T13:10:35;26.90;99.90
64685;DHT22;51109;47.414;18.954;2023-07-31T13:13:01;26.80;99.90
64685;DHT22;51109;47.414;18.954;2023-07-31T13:15:27;26.90;99.90
64685;DHT22;51109;47.414;18.954;2023-07-31T13:17:53;27.10;99.90
64685;DHT22;51109;47.414;18.954;2023-07-31T13:20:19;27.10;99.90
64685;DHT22;51109;47.414;18.954;2023-07-31T13:22:44;26.70;99.90
64685;DHT22;51109;47.414;18.954;2023-07-31T13:25:10;26.80;99.90
64685;DHT22;51109;47.414;18.954;2023-07-31T13:27:36;26.70;99.90
64685;DHT22;51109;47.414;18.954;2023-07-31T13:30:02;26.90;99.90
64685;DHT22;51109;47.414;18.954;2023-07-31T13:32:29;26.80;99.90
64685;DHT22;51109;47.414;18.954;2023-07-31T13:34:55;26.60;99.90
64685;DHT22;51109;47.414;18.954;2023-07-31T13:37:21;26.50;99.90
64685;DHT22;51109;47.414;18.954;2023-07-31T13:39:47;26.70;99.90
64685;DHT22;51109;47.414;18.954;2023-07-31T13:42:13;26.90;99.90
64685;DHT22;51109;47.414;18.954;2023-07-31T13:44:39;26.70;99.90
64685;DHT22;51109;47.414;18.954;2023-07-31T13:47:05;27.00;99.90
64685;DHT22;51109;47.414;18.954;2023-07-31T13:49:32;26.70;99.90
64685;DHT22;51109;47.414;18.954;2023-07-31T13:51:58;26.80;99.90
64685;DHT22;51109;47.414;18.954;2023-07-31T13:54:25;27.10;99.90
64685;DHT22;51109;47.414;18.954;2023-07-31T13:56:52;26.90;99.90
64685;DHT22;51109;47.414;18.954;2023-07-31T13:59:19;26.80;99.90
64685;DHT22;51109;47.414;18.954;2023-07-31T14:01:44;26.70;99.90
64685;DHT22;51109;47.414;18.954;2023-07-31T14:04:11;26.70;99.90
64685;DHT22;51109;47.414;18.954;2023-07-31T14:06:37;26.80;99.90
64685;DHT22;51109;47.414;18.954;2023-07-31T14:09:04;26.80;99.90
64685;DHT22;51109;47.414;18.954;2023-07-31T14:11:31;26.70;99.90
64685;DHT22;51109;47.414;18.954;2023-07-31T14:13:57;26.70;99.90
64685;DHT22;51109;47.414;18.954;2023-07-31T14:16:23;26.70;99.90
64685;DHT22;51109;47.414;18.954;2023-07-31T14:18:49;26.30;99.90
64685;DHT22;51109;47.414;18.954;2023-07-31T14:21:16;26.10;99.90
64685;DHT22;51109;47.414;18.954;2023-07-31T14:23:42;25.90;99.90
64685;DHT22;51109;47.414;18.954;2023-07-31T14:26:08;26.10;99.90
64685;DHT22;51109;47.414;18.954;2023-07-31T14:28:34;26.10;99.90
64685;DHT22;51109;47.414;18.954;2023-07-31T14:31:00;26.10;99.90
64685;DHT22;51109;47.414;18.954;2023-07-31T14:33:26;25.90;99.90
64685;DHT22;51109;47.414;18.954;2023-07-31T14:35:52;26.30;99.90
64685;DHT22;51109;47.414;18.954;2023-07-31T14:38:18;26.70;99.90
64685;DHT22;51109;47.414;18.954;2023-07-31T14:40:44;27.10;99.90
64685;DHT22;51109;47.414;18.954;2023-07-31T14:43:10;27.20;99.90
64685;DHT22;51109;47.414;18.954;2023-07-31T14:45:36;27.30;99.90
64685;DHT22;51109;47.414;18.954;2023-07-31T14:48:02;27.40;99.90
64685;DHT22;51109;47.414;18.954;2023-07-31T14:50:28;27.70;99.90
64685;DHT22;51109;47.414;18.954;2023-07-31T14:52:54;27.70;99.90
64685;DHT22;51109;47.414;18.954;2023-07-31T14:55:20;28.10;99.90
64685;DHT22;51109;47.414;18.954;2023-07-31T14:57:46;28.00;99.90
64685;DHT22;51109;47.414;18.954;2023-07-31T15:00:13;27.80;99.90
64685;DHT22;51109;47.414;18.954;2023-07-31T15:02:39;28.40;99.90
64685;DHT22;51109;47.414;18.954;2023-07-31T15:05:06;28.60;99.90
64685;DHT22;51109;47.414;18.954;2023-07-31T15:07:33;28.50;99.90
64685;DHT22;51109;47.414;18.954;2023-07-31T15:10:03;28.40;99.90
64685;DHT22;51109;47.414;18.954;2023-07-31T15:12:30;27.70;99.90
64685;DHT22;51109;47.414;18.954;2023-07-31T15:14:56;27.70;99.90
64685;DHT22;51109;47.414;18.954;2023-07-31T15:17:22;28.00;99.90
64685;DHT22;51109;47.414;18.954;2023-07-31T15:19:48;28.00;99.90
64685;DHT22;51109;47.414;18.954;2023-07-31T15:22:14;27.80;99.90
64685;DHT22;51109;47.414;18.954;2023-07-31T15:24:40;27.50;99.90
64685;DHT22;51109;47.414;18.954;2023-07-31T15:27:06;27.40;99.90
64685;DHT22;51109;47.414;18.954;2023-07-31T15:29:34;26.90;99.90
64685;DHT22;51109;47.414;18.954;2023-07-31T15:32:04;26.60;99.90